createdAt,value
2022-11-29T00:07:01.033Z,7.7
2022-11-29T00:17:03.267Z,7.7
2022-11-29T00:27:04.889Z,7.6
2022-11-29T00:37:07.351Z,7.6
2022-11-29T01:27:17.794Z,7.4
2022-11-29T01:37:20.005Z,7.4
2022-11-29T01:47:21.941Z,7.4
2022-11-29T01:57:24.055Z,7.5
2022-11-29T02:07:26.269Z,7.5
2022-11-29T02:47:34.139Z,7.5
2022-11-29T02:57:35.920Z,7.5
2022-11-29T03:27:43.217Z,7.5
2022-11-29T08:08:43.872Z,7.2
2022-11-29T08:18:41.385Z,7.2
2022-11-29T08:28:43.692Z,7.3
2022-11-29T08:58:49.908Z,7.5
2022-11-29T09:38:57.872Z,7.8
2022-11-29T09:49:00.080Z,7.8
2022-11-29T10:09:03.730Z,8
2022-11-29T10:29:07.550Z,8
2022-11-29T10:39:14.262Z,8.2
2022-11-29T10:59:13.871Z,8.2
2022-11-29T11:19:17.907Z,8
2022-11-29T12:19:32.155Z,8
2022-11-29T12:39:36.806Z,7.9
2022-11-29T12:49:38.685Z,7.7
2022-11-29T12:59:40.968Z,7.8
2022-11-29T13:09:43.990Z,7.9
2022-11-29T13:29:48.199Z,7.9
2022-11-29T13:49:52.696Z,8
2022-11-29T13:59:54.858Z,8.1
2022-11-29T14:09:56.929Z,8.1
2022-11-29T14:19:58.607Z,8.1
2022-11-29T14:30:00.575Z,8.2
2022-11-29T14:40:02.547Z,8.2
2022-11-29T15:00:06.262Z,8.2
2022-11-29T15:10:08.595Z,8.2
2022-11-29T15:30:12.613Z,8.1
2022-11-29T15:40:15.286Z,8
2022-11-29T15:50:17.483Z,7.9
2022-11-29T16:00:19.697Z,7.9
2022-11-29T16:20:23.238Z,7.9
2022-11-29T16:30:25.046Z,7.8
2022-11-29T16:40:27.409Z,7.7
2022-11-29T17:10:33.259Z,7.6
2022-11-29T17:20:35.820Z,7.6
2022-11-29T17:30:38.241Z,7.6
2022-11-29T17:40:40.021Z,7.6
2022-11-29T17:50:42.351Z,7.5
2022-11-29T18:00:44.072Z,7.5
2022-11-29T18:10:46.235Z,7.5
2022-11-29T18:20:48.043Z,7.4
2022-11-29T18:30:49.728Z,7.3
2022-11-29T18:40:51.654Z,7.3
2022-11-29T18:50:53.910Z,7.3
2022-11-29T19:00:55.805Z,7.3
2022-11-29T19:10:57.696Z,7.3
2022-11-29T19:31:02.609Z,7.3
2022-11-29T19:41:04.354Z,7.2
2022-11-29T19:51:06.003Z,7.2
2022-11-29T20:01:08.061Z,7.1
2022-11-29T20:11:10.032Z,7.1
2022-11-29T20:21:11.739Z,7
2022-11-29T20:31:13.589Z,7
2022-11-29T20:41:22.273Z,7
2022-11-29T20:51:24.475Z,7
2022-11-29T21:01:26.208Z,7
2022-11-29T21:11:28.733Z,6.9
2022-11-29T21:21:31.199Z,7
2022-11-29T21:31:33.353Z,7
2022-11-29T21:41:35.324Z,6.9
2022-11-29T21:51:37.948Z,6.9
2022-11-29T22:01:40.541Z,6.9
2022-11-29T22:11:42.262Z,6.9
2022-11-29T22:21:44.070Z,6.9
2022-11-29T22:31:45.891Z,6.9
2022-11-29T23:11:53.990Z,6.9
2022-11-29T23:21:56.356Z,6.9
2022-11-29T23:31:58.500Z,6.9
2022-11-29T23:42:00.697Z,6.9
